sensor_id;sensor_type;location;lat;lon;timestamp;pressure;altitude;pressure_sealevel;temperature;humidity
64076;BME280;50327;51.328;12.324;2022-07-18T00:01:55;53146.09;;;-144.47;40.42
64076;BME280;50327;51.328;12.324;2022-07-18T00:04:20;53136.16;;;-144.47;40.82
64076;BME280;50327;51.328;12.324;2022-07-18T00:06:46;53122.25;;;-144.47;40.65
64076;BME280;50327;51.328;12.324;2022-07-18T00:09:11;53112.31;;;-144.47;39.88
64076;BME280;50327;51.328;12.324;2022-07-18T00:11:37;53122.25;;;-144.47;39.91
64076;BME280;50327;51.328;12.324;2022-07-18T00:14:03;53165.94;;;-144.47;40.66
64076;BME280;50327;51.328;12.324;2022-07-18T00:16:28;53128.22;;;-144.47;40.88
64076;BME280;50327;51.328;12.324;2022-07-18T00:18:54;53152.03;;;-144.47;41.07
64076;BME280;50327;51.328;12.324;2022-07-18T00:21:20;53124.22;;;-144.47;41.00
64076;BME280;50327;51.328;12.324;2022-07-18T00:23:45;53090.47;;;-144.47;41.25
64076;BME280;50327;51.328;12.324;2022-07-18T00:26:10;53136.16;;;-144.47;41.02
64076;BME280;50327;51.328;12.324;2022-07-18T00:28:36;53112.31;;;-144.47;41.13
64076;BME280;50327;51.328;12.324;2022-07-18T00:31:02;53181.84;;;-144.47;41.42
64076;BME280;50327;51.328;12.324;2022-07-18T00:33:27;53122.25;;;-144.47;41.40
64076;BME280;50327;51.328;12.324;2022-07-18T00:35:52;53114.31;;;-144.47;41.35
64076;BME280;50327;51.328;12.324;2022-07-18T00:38:18;53152.03;;;-144.47;40.70
64076;BME280;50327;51.328;12.324;2022-07-18T00:40:43;53140.13;;;-144.47;40.83
64076;BME280;50327;51.328;12.324;2022-07-18T00:43:12;53118.28;;;-144.47;40.88
64076;BME280;50327;51.328;12.324;2022-07-18T00:45:37;53140.13;;;-144.47;40.76
64076;BME280;50327;51.328;12.324;2022-07-18T00:48:07;53104.38;;;-144.47;41.13
64076;BME280;50327;51.328;12.324;2022-07-18T00:50:33;53110.31;;;-144.47;41.31
64076;BME280;50327;51.328;12.324;2022-07-18T00:52:58;53100.41;;;-144.47;41.00
64076;BME280;50327;51.328;12.324;2022-07-18T00:55:24;53138.13;;;-144.47;41.27
64076;BME280;50327;51.328;12.324;2022-07-18T00:57:49;53156.00;;;-144.47;41.67
64076;BME280;50327;51.328;12.324;2022-07-18T01:00:15;53114.31;;;-144.47;41.90
64076;BME280;50327;51.328;12.324;2022-07-18T01:02:59;53102.38;;;-144.47;42.00
64076;BME280;50327;51.328;12.324;2022-07-18T01:05:24;53128.22;;;-144.47;42.32
64076;BME280;50327;51.328;12.324;2022-07-18T01:07:50;53181.84;;;-144.47;42.57
64076;BME280;50327;51.328;12.324;2022-07-18T01:10:17;53114.31;;;-144.47;42.64
64076;BME280;50327;51.328;12.324;2022-07-18T01:12:44;53146.09;;;-144.47;42.69
64076;BME280;50327;51.328;12.324;2022-07-18T01:15:10;53088.47;;;-144.47;42.70
64076;BME280;50327;51.328;12.324;2022-07-18T01:17:35;53116.28;;;-144.47;42.85
64076;BME280;50327;51.328;12.324;2022-07-18T01:20:03;53142.09;;;-144.47;42.79
64076;BME280;50327;51.328;12.324;2022-07-18T01:22:28;53122.25;;;-144.47;42.80
64076;BME280;50327;51.328;12.324;2022-07-18T01:24:54;53146.09;;;-144.47;43.05
64076;BME280;50327;51.328;12.324;2022-07-18T01:27:20;53130.19;;;-144.47;43.17
64076;BME280;50327;51.328;12.324;2022-07-18T01:29:48;53146.09;;;-144.47;43.50
64076;BME280;50327;51.328;12.324;2022-07-18T01:32:14;53154.03;;;-144.47;43.37
64076;BME280;50327;51.328;12.324;2022-07-18T01:34:40;53160.00;;;-144.47;43.53
64076;BME280;50327;51.328;12.324;2022-07-18T01:37:07;53142.09;;;-144.47;43.84
64076;BME280;50327;51.328;12.324;2022-07-18T01:39:32;53128.22;;;-144.47;43.99
64076;BME280;50327;51.328;12.324;2022-07-18T01:42:00;53114.31;;;-144.47;44.14
64076;BME280;50327;51.328;12.324;2022-07-18T01:44:26;53146.09;;;-144.47;44.20
64076;BME280;50327;51.328;12.324;2022-07-18T01:46:52;53148.06;;;-144.47;44.24
64076;BME280;50327;51.328;12.324;2022-07-18T01:49:18;53156.00;;;-144.47;44.37
64076;BME280;50327;51.328;12.324;2022-07-18T01:51:45;53128.22;;;-144.47;44.63
64076;BME280;50327;51.328;12.324;2022-07-18T01:54:11;53146.09;;;-144.47;44.49
64076;BME280;50327;51.328;12.324;2022-07-18T01:56:37;53163.97;;;-144.47;44.41
64076;BME280;50327;51.328;12.324;2022-07-18T01:59:02;53134.16;;;-144.47;44.63
64076;BME280;50327;51.328;12.324;2022-07-18T02:01:28;53144.09;;;-144.47;44.88
64076;BME280;50327;51.328;12.324;2022-07-18T02:03:53;53161.97;;;-144.47;44.91
64076;BME280;50327;51.328;12.324;2022-07-18T02:06:18;53144.09;;;-144.47;45.16
64076;BME280;50327;51.328;12.324;2022-07-18T02:08:44;53156.00;;;-144.47;45.42
64076;BME280;50327;51.328;12.324;2022-07-18T02:11:09;53160.00;;;-144.47;45.58
64076;BME280;50327;51.328;12.324;2022-07-18T02:13:35;53165.94;;;-144.47;45.45
64076;BME280;50327;51.328;12.324;2022-07-18T02:16:00;53142.09;;;-144.47;45.30
64076;BME280;50327;51.328;12.324;2022-07-18T02:18:26;53156.00;;;-144.47;45.35
64076;BME280;50327;51.328;12.324;2022-07-18T02:20:51;53181.84;;;-144.47;45.55
64076;BME280;50327;51.328;12.324;2022-07-18T02:23:17;53167.94;;;-144.47;45.69
64076;BME280;50327;51.328;12.324;2022-07-18T02:25:42;53110.31;;;-144.47;45.45
64076;BME280;50327;51.328;12.324;2022-07-18T02:28:08;53148.06;;;-144.47;45.52
64076;BME280;50327;51.328;12.324;2022-07-18T02:30:33;53118.28;;;-144.47;45.60
64076;BME280;50327;51.328;12.324;2022-07-18T02:32:58;53150.06;;;-144.47;45.70
64076;BME280;50327;51.328;12.324;2022-07-18T02:35:24;53189.78;;;-144.47;45.49
64076;BME280;50327;51.328;12.324;2022-07-18T02:37:49;53161.97;;;-144.47;45.88
64076;BME280;50327;51.328;12.324;2022-07-18T02:40:15;53177.88;;;-144.47;46.25
64076;BME280;50327;51.328;12.324;2022-07-18T02:42:40;53181.84;;;-144.47;46.46
64076;BME280;50327;51.328;12.324;2022-07-18T02:45:07;53161.97;;;-144.47;46.59
64076;BME280;50327;51.328;12.324;2022-07-18T02:47:32;53150.06;;;-144.47;46.82
64076;BME280;50327;51.328;12.324;2022-07-18T02:49:58;53146.09;;;-144.47;46.79
64076;BME280;50327;51.328;12.324;2022-07-18T02:52:23;53165.94;;;-144.47;46.86
64076;BME280;50327;51.328;12.324;2022-07-18T02:54:49;53158.00;;;-144.47;47.16
64076;BME280;50327;51.328;12.324;2022-07-18T02:57:14;53167.94;;;-144.47;47.36
64076;BME280;50327;51.328;12.324;2022-07-18T02:59:40;53163.97;;;-144.47;47.64
64076;BME280;50327;51.328;12.324;2022-07-18T03:02:05;53142.09;;;-144.47;47.94
64076;BME280;50327;51.328;12.324;2022-07-18T03:04:31;53154.03;;;-144.47;48.12
64076;BME280;50327;51.328;12.324;2022-07-18T03:06:57;53160.00;;;-144.47;48.09
64076;BME280;50327;51.328;12.324;2022-07-18T03:09:22;53150.06;;;-144.47;48.31
64076;BME280;50327;51.328;12.324;2022-07-18T03:11:48;53169.91;;;-144.47;48.54
64076;BME280;50327;51.328;12.324;2022-07-18T03:14:14;53152.03;;;-144.47;48.77
64076;BME280;50327;51.328;12.324;2022-07-18T03:16:39;53148.06;;;-144.47;49.06
64076;BME280;50327;51.328;12.324;2022-07-18T03:19:05;53138.13;;;-144.47;49.23
64076;BME280;50327;51.328;12.324;2022-07-18T03:21:30;53179.84;;;-144.47;49.15
64076;BME280;50327;51.328;12.324;2022-07-18T03:23:56;53191.78;;;-144.47;49.38
64076;BME280;50327;51.328;12.324;2022-07-18T03:26:22;53158.00;;;-144.47;49.41
64076;BME280;50327;51.328;12.324;2022-07-18T03:28:47;53160.00;;;-144.47;49.73
64076;BME280;50327;51.328;12.324;2022-07-18T03:31:13;53161.97;;;-144.47;49.57
64076;BME280;50327;51.328;12.324;2022-07-18T03:33:39;53179.84;;;-144.47;49.71
64076;BME280;50327;51.328;12.324;2022-07-18T03:36:05;53207.66;;;-144.47;49.71
64076;BME280;50327;51.328;12.324;2022-07-18T03:38:31;53144.09;;;-144.47;49.45
64076;BME280;50327;51.328;12.324;2022-07-18T03:40:56;53140.13;;;-144.47;49.30
64076;BME280;50327;51.328;12.324;2022-07-18T03:43:21;53181.84;;;-144.47;49.77
64076;BME280;50327;51.328;12.324;2022-07-18T03:45:47;53165.94;;;-144.47;49.41
64076;BME280;50327;51.328;12.324;2022-07-18T03:48:12;53142.09;;;-144.47;48.45
64076;BME280;50327;51.328;12.324;2022-07-18T03:50:38;53144.09;;;-144.47;48.52
64076;BME280;50327;51.328;12.324;2022-07-18T03:53:03;53140.13;;;-144.47;48.49
64076;BME280;50327;51.328;12.324;2022-07-18T03:55:29;53181.84;;;-144.47;48.64
64076;BME280;50327;51.328;12.324;2022-07-18T03:57:54;53167.94;;;-144.47;48.93
64076;BME280;50327;51.328;12.324;2022-07-18T04:00:20;53150.06;;;-144.47;48.83
64076;BME280;50327;51.328;12.324;2022-07-18T04:02:47;53150.06;;;-144.47;49.16
64076;BME280;50327;51.328;12.324;2022-07-18T04:05:14;53158.00;;;-144.47;49.34
64076;BME280;50327;51.328;12.324;2022-07-18T04:07:40;53169.91;;;-144.47;49.79
64076;BME280;50327;51.328;12.324;2022-07-18T04:10:07;53142.09;;;-144.47;49.72
64076;BME280;50327;51.328;12.324;2022-07-18T04:12:32;53195.75;;;-144.47;49.52
64076;BME280;50327;51.328;12.324;2022-07-18T04:14:58;53165.94;;;-144.47;49.36
64076;BME280;50327;51.328;12.324;2022-07-18T04:17:24;53163.97;;;-144.47;49.31
64076;BME280;50327;51.328;12.324;2022-07-18T04:19:50;53142.09;;;-144.47;49.15
64076;BME280;50327;51.328;12.324;2022-07-18T04:22:15;53177.88;;;-144.47;48.57
64076;BME280;50327;51.328;12.324;2022-07-18T04:24:41;53144.09;;;-144.47;47.84
64076;BME280;50327;51.328;12.324;2022-07-18T04:27:06;53169.91;;;-144.47;47.53
64076;BME280;50327;51.328;12.324;2022-07-18T04:29:32;53160.00;;;-144.47;49.28
64076;BME280;50327;51.328;12.324;2022-07-18T04:31:58;53177.88;;;-144.47;48.23
64076;BME280;50327;51.328;12.324;2022-07-18T04:34:23;53161.97;;;-144.47;47.56
64076;BME280;50327;51.328;12.324;2022-07-18T04:36:49;53150.06;;;-144.47;46.96
64076;BME280;50327;51.328;12.324;2022-07-18T04:39:14;53158.00;;;-144.47;46.39
64076;BME280;50327;51.328;12.324;2022-07-18T04:41:42;53161.97;;;-144.47;46.42
64076;BME280;50327;51.328;12.324;2022-07-18T04:44:07;53167.94;;;-144.47;46.66
64076;BME280;50327;51.328;12.324;2022-07-18T04:46:33;53148.06;;;-144.47;46.60
64076;BME280;50327;51.328;12.324;2022-07-18T04:48:58;53181.84;;;-144.47;46.38
64076;BME280;50327;51.328;12.324;2022-07-18T04:51:23;53152.03;;;-144.47;45.85
64076;BME280;50327;51.328;12.324;2022-07-18T04:53:49;53146.09;;;-144.47;45.78
64076;BME280;50327;51.328;12.324;2022-07-18T04:56:14;53173.88;;;-144.47;46.00
64076;BME280;50327;51.328;12.324;2022-07-18T04:58:39;53163.97;;;-144.47;45.98
64076;BME280;50327;51.328;12.324;2022-07-18T05:01:05;53140.13;;;-144.47;46.17
64076;BME280;50327;51.328;12.324;2022-07-18T05:03:30;53152.03;;;-144.47;46.16
64076;BME280;50327;51.328;12.324;2022-07-18T05:05:55;53189.78;;;-144.47;46.34
64076;BME280;50327;51.328;12.324;2022-07-18T05:08:24;53150.06;;;-144.47;46.43
64076;BME280;50327;51.328;12.324;2022-07-18T05:10:49;53136.16;;;-144.47;46.27
64076;BME280;50327;51.328;12.324;2022-07-18T05:13:15;53132.19;;;-144.47;46.27
64076;BME280;50327;51.328;12.324;2022-07-18T05:15:40;53183.81;;;-144.47;46.25
64076;BME280;50327;51.328;12.324;2022-07-18T05:18:05;53203.69;;;-144.47;46.42
64076;BME280;50327;51.328;12.324;2022-07-18T05:20:31;53167.94;;;-144.47;46.55
64076;BME280;50327;51.328;12.324;2022-07-18T05:22:56;53102.38;;;-144.47;46.68
64076;BME280;50327;51.328;12.324;2022-07-18T05:25:22;53161.97;;;-144.47;46.94
64076;BME280;50327;51.328;12.324;2022-07-18T05:27:51;53161.97;;;-144.47;47.38
64076;BME280;50327;51.328;12.324;2022-07-18T05:30:17;53169.91;;;-144.47;47.71
64076;BME280;50327;51.328;12.324;2022-07-18T05:32:43;53082.53;;;-144.47;48.19
64076;BME280;50327;51.328;12.324;2022-07-18T05:35:11;53161.97;;;-144.47;48.74
64076;BME280;50327;51.328;12.324;2022-07-18T05:37:37;53140.13;;;-144.47;49.33
64076;BME280;50327;51.328;12.324;2022-07-18T05:40:04;53165.94;;;-144.47;49.63
64076;BME280;50327;51.328;12.324;2022-07-18T05:42:29;53146.09;;;-144.47;49.78
64076;BME280;50327;51.328;12.324;2022-07-18T05:44:55;53152.03;;;-144.47;49.76
64076;BME280;50327;51.328;12.324;2022-07-18T05:47:20;53148.06;;;-144.47;49.59
64076;BME280;50327;51.328;12.324;2022-07-18T05:49:46;53150.06;;;-144.47;49.62
64076;BME280;50327;51.328;12.324;2022-07-18T05:52:11;53183.81;;;-144.47;49.61
64076;BME280;50327;51.328;12.324;2022-07-18T05:54:36;53167.94;;;-144.47;49.13
64076;BME280;50327;51.328;12.324;2022-07-18T05:57:02;53144.09;;;-144.47;48.41
64076;BME280;50327;51.328;12.324;2022-07-18T05:59:27;53144.09;;;-144.47;48.94
64076;BME280;50327;51.328;12.324;2022-07-18T06:01:53;53185.81;;;-144.47;48.11
64076;BME280;50327;51.328;12.324;2022-07-18T06:04:18;53118.28;;;-144.47;47.92
64076;BME280;50327;51.328;12.324;2022-07-18T06:06:43;53148.06;;;-144.47;48.44
64076;BME280;50327;51.328;12.324;2022-07-18T06:09:10;53169.91;;;-144.47;48.79
64076;BME280;50327;51.328;12.324;2022-07-18T06:11:35;53173.88;;;-144.47;48.90
64076;BME280;50327;51.328;12.324;2022-07-18T06:14:01;53114.31;;;-144.47;48.63
64076;BME280;50327;51.328;12.324;2022-07-18T06:16:28;53181.84;;;-144.47;48.62
64076;BME280;50327;51.328;12.324;2022-07-18T06:18:54;53163.97;;;-144.47;48.74
64076;BME280;50327;51.328;12.324;2022-07-18T06:21:19;53148.06;;;-144.47;49.21
64076;BME280;50327;51.328;12.324;2022-07-18T06:23:44;53148.06;;;-144.47;49.11
64076;BME280;50327;51.328;12.324;2022-07-18T06:26:10;53138.13;;;-144.47;48.92
64076;BME280;50327;51.328;12.324;2022-07-18T06:28:35;53126.22;;;-144.47;48.56
64076;BME280;50327;51.328;12.324;2022-07-18T06:31:01;53160.00;;;-144.47;48.21
64076;BME280;50327;51.328;12.324;2022-07-18T06:33:26;53152.03;;;-144.47;47.92
64076;BME280;50327;51.328;12.324;2022-07-18T06:35:52;53132.19;;;-144.47;47.42
64076;BME280;50327;51.328;12.324;2022-07-18T06:38:17;53173.88;;;-144.47;46.53
64076;BME280;50327;51.328;12.324;2022-07-18T06:40:43;53156.00;;;-144.47;46.14
64076;BME280;50327;51.328;12.324;2022-07-18T06:43:09;53142.09;;;-144.47;45.90
64076;BME280;50327;51.328;12.324;2022-07-18T06:45:34;53144.09;;;-144.47;45.75
64076;BME280;50327;51.328;12.324;2022-07-18T06:48:00;53160.00;;;-144.47;45.42
64076;BME280;50327;51.328;12.324;2022-07-18T06:50:25;53146.09;;;-144.47;45.16
64076;BME280;50327;51.328;12.324;2022-07-18T06:52:51;53116.28;;;-144.47;44.42
64076;BME280;50327;51.328;12.324;2022-07-18T06:55:17;53138.13;;;-144.47;44.18
64076;BME280;50327;51.328;12.324;2022-07-18T06:57:43;53142.09;;;-144.47;44.13
64076;BME280;50327;51.328;12.324;2022-07-18T07:00:10;53138.13;;;-144.47;43.89
64076;BME280;50327;51.328;12.324;2022-07-18T07:02:44;53116.28;;;-144.47;43.81
64076;BME280;50327;51.328;12.324;2022-07-18T07:05:10;53128.22;;;-144.47;43.54
64076;BME280;50327;51.328;12.324;2022-07-18T07:07:36;53102.38;;;-144.47;43.15
64076;BME280;50327;51.328;12.324;2022-07-18T07:10:03;53104.38;;;-144.47;43.09
64076;BME280;50327;51.328;12.324;2022-07-18T07:12:28;53116.28;;;-144.47;42.68
64076;BME280;50327;51.328;12.324;2022-07-18T07:14:54;53112.31;;;-144.47;42.10
64076;BME280;50327;51.328;12.324;2022-07-18T07:17:19;53094.44;;;-144.47;41.20
64076;BME280;50327;51.328;12.324;2022-07-18T07:19:44;53074.56;;;-144.47;40.36
64076;BME280;50327;51.328;12.324;2022-07-18T07:22:10;53118.28;;;-144.47;39.14
64076;BME280;50327;51.328;12.324;2022-07-18T07:24:35;53136.16;;;-144.47;39.56
64076;BME280;50327;51.328;12.324;2022-07-18T07:27:03;53126.22;;;-144.47;39.21
64076;BME280;50327;51.328;12.324;2022-07-18T07:29:29;53108.34;;;-144.47;38.89
64076;BME280;50327;51.328;12.324;2022-07-18T07:31:54;53094.44;;;-144.47;38.07
64076;BME280;50327;51.328;12.324;2022-07-18T07:34:19;53074.56;;;-144.47;37.70
64076;BME280;50327;51.328;12.324;2022-07-18T07:36:45;53084.50;;;-144.47;36.54
64076;BME280;50327;51.328;12.324;2022-07-18T07:39:10;53044.78;;;-144.47;36.88
64076;BME280;50327;51.328;12.324;2022-07-18T07:41:35;53046.75;;;-144.47;36.33
64076;BME280;50327;51.328;12.324;2022-07-18T07:44:01;53084.50;;;-144.47;36.16
64076;BME280;50327;51.328;12.324;2022-07-18T07:46:26;53092.44;;;-144.47;36.68
64076;BME280;50327;51.328;12.324;2022-07-18T07:48:52;53070.59;;;-144.47;36.64
64076;BME280;50327;51.328;12.324;2022-07-18T07:51:17;53076.56;;;-144.47;36.50
64076;BME280;50327;51.328;12.324;2022-07-18T07:53:42;53058.69;;;-144.47;36.66
64076;BME280;50327;51.328;12.324;2022-07-18T07:56:08;53062.66;;;-144.47;36.65
64076;BME280;50327;51.328;12.324;2022-07-18T07:58:33;53084.50;;;-144.47;36.39
64076;BME280;50327;51.328;12.324;2022-07-18T08:00:59;53068.63;;;-144.47;35.80
64076;BME280;50327;51.328;12.324;2022-07-18T08:03:24;53076.56;;;-144.47;35.68
64076;BME280;50327;51.328;12.324;2022-07-18T08:05:50;53052.72;;;-144.47;35.57
64076;BME280;50327;51.328;12.324;2022-07-18T08:08:16;53070.59;;;-144.47;35.06
64076;BME280;50327;51.328;12.324;2022-07-18T08:10:42;53056.69;;;-144.47;35.06
64076;BME280;50327;51.328;12.324;2022-07-18T08:13:08;53078.53;;;-144.47;34.89
64076;BME280;50327;51.328;12.324;2022-07-18T08:15:34;53054.72;;;-144.47;34.79
64076;BME280;50327;51.328;12.324;2022-07-18T08:18:01;53088.47;;;-144.47;34.44
64076;BME280;50327;51.328;12.324;2022-07-18T08:20:26;53076.56;;;-144.47;34.24
64076;BME280;50327;51.328;12.324;2022-07-18T08:23:08;53072.59;;;-144.47;33.87
64076;BME280;50327;51.328;12.324;2022-07-18T08:25:37;53015.00;;;-144.47;33.60
64076;BME280;50327;51.328;12.324;2022-07-18T08:28:03;53092.44;;;-144.47;33.34
64076;BME280;50327;51.328;12.324;2022-07-18T08:30:29;53042.78;;;-144.47;32.38
64076;BME280;50327;51.328;12.324;2022-07-18T08:32:56;53056.69;;;-144.47;32.38
64076;BME280;50327;51.328;12.324;2022-07-18T08:35:21;53038.81;;;-144.47;32.43
64076;BME280;50327;51.328;12.324;2022-07-18T08:37:47;53068.63;;;-144.47;32.44
64076;BME280;50327;51.328;12.324;2022-07-18T08:40:13;53062.66;;;-144.47;32.30
64076;BME280;50327;51.328;12.324;2022-07-18T08:42:38;53018.97;;;-144.47;32.13
64076;BME280;50327;51.328;12.324;2022-07-18T08:45:05;53011.00;;;-144.47;32.10
64076;BME280;50327;51.328;12.324;2022-07-18T08:47:31;53062.66;;;-144.47;31.74
64076;BME280;50327;51.328;12.324;2022-07-18T08:49:58;53036.84;;;-144.47;31.66
64076;BME280;50327;51.328;12.324;2022-07-18T08:52:24;53054.72;;;-144.47;31.32
64076;BME280;50327;51.328;12.324;2022-07-18T08:54:50;53022.94;;;-144.47;31.34
64076;BME280;50327;51.328;12.324;2022-07-18T08:57:16;52995.13;;;-144.47;30.97
64076;BME280;50327;51.328;12.324;2022-07-18T08:59:42;53026.91;;;-144.47;30.72
64076;BME280;50327;51.328;12.324;2022-07-18T09:02:07;53005.06;;;-144.47;30.39
64076;BME280;50327;51.328;12.324;2022-07-18T09:04:39;53015.00;;;-144.47;30.24
64076;BME280;50327;51.328;12.324;2022-07-18T09:07:06;53020.94;;;-144.47;30.31
64076;BME280;50327;51.328;12.324;2022-07-18T09:09:34;53016.97;;;-144.47;30.17
64076;BME280;50327;51.328;12.324;2022-07-18T09:12:03;53015.00;;;-144.47;29.87
64076;BME280;50327;51.328;12.324;2022-07-18T09:19:35;53015.00;;;-144.47;28.89
64076;BME280;50327;51.328;12.324;2022-07-18T09:22:33;52999.09;;;-144.47;28.83
64076;BME280;50327;51.328;12.324;2022-07-18T09:25:03;53018.97;;;-144.47;29.02
64076;BME280;50327;51.328;12.324;2022-07-18T09:27:33;52969.31;;;-144.47;28.81
64076;BME280;50327;51.328;12.324;2022-07-18T09:32:38;52985.19;;;-144.47;28.64
64076;BME280;50327;51.328;12.324;2022-07-18T09:35:07;52987.19;;;-144.47;28.58
64076;BME280;50327;51.328;12.324;2022-07-18T09:37:33;53009.03;;;-144.47;28.45
64076;BME280;50327;51.328;12.324;2022-07-18T09:42:40;52991.16;;;-144.47;28.44
64076;BME280;50327;51.328;12.324;2022-07-18T09:45:05;52987.19;;;-144.47;27.82
64076;BME280;50327;51.328;12.324;2022-07-18T09:47:31;53015.00;;;-144.47;27.52
64076;BME280;50327;51.328;12.324;2022-07-18T09:49:56;52997.09;;;-144.47;27.53
64076;BME280;50327;51.328;12.324;2022-07-18T09:52:22;53026.91;;;-144.47;27.69
64076;BME280;50327;51.328;12.324;2022-07-18T09:54:47;52983.22;;;-144.47;27.60
64076;BME280;50327;51.328;12.324;2022-07-18T09:57:24;53003.06;;;-144.47;27.47
64076;BME280;50327;51.328;12.324;2022-07-18T09:59:50;52971.28;;;-144.47;27.36
64076;BME280;50327;51.328;12.324;2022-07-18T10:02:16;52977.25;;;-144.47;27.13
64076;BME280;50327;51.328;12.324;2022-07-18T10:04:41;52983.22;;;-144.47;26.92
64076;BME280;50327;51.328;12.324;2022-07-18T10:07:08;52973.28;;;-144.47;26.82
64076;BME280;50327;51.328;12.324;2022-07-18T10:09:33;52993.13;;;-144.47;26.77
64076;BME280;50327;51.328;12.324;2022-07-18T10:11:59;52973.28;;;-144.47;26.54
64076;BME280;50327;51.328;12.324;2022-07-18T10:14:25;52975.25;;;-144.47;26.56
64076;BME280;50327;51.328;12.324;2022-07-18T10:16:53;52999.09;;;-144.47;26.68
64076;BME280;50327;51.328;12.324;2022-07-18T10:19:19;52991.16;;;-144.47;26.53
64076;BME280;50327;51.328;12.324;2022-07-18T10:21:47;52973.28;;;-144.47;26.76
64076;BME280;50327;51.328;12.324;2022-07-18T10:24:17;53011.00;;;-144.47;26.63
64076;BME280;50327;51.328;12.324;2022-07-18T10:26:43;52983.22;;;-144.47;26.38
64076;BME280;50327;51.328;12.324;2022-07-18T10:29:09;52963.34;;;-144.47;26.26
64076;BME280;50327;51.328;12.324;2022-07-18T10:31:37;52973.28;;;-144.47;26.19
64076;BME280;50327;51.328;12.324;2022-07-18T10:36:36;52969.31;;;-144.47;26.04
64076;BME280;50327;51.328;12.324;2022-07-18T10:39:16;53013.00;;;-144.47;26.01
64076;BME280;50327;51.328;12.324;2022-07-18T10:50:03;52949.44;;;-144.47;25.87
64076;BME280;50327;51.328;12.324;2022-07-18T11:00:15;52941.50;;;-144.47;25.69
64076;BME280;50327;51.328;12.324;2022-07-18T11:02:46;52943.47;;;-144.47;25.49
64076;BME280;50327;51.328;12.324;2022-07-18T11:16:00;52963.34;;;-144.47;25.16
64076;BME280;50327;51.328;12.324;2022-07-18T11:21:33;52949.44;;;-144.47;25.12
64076;BME280;50327;51.328;12.324;2022-07-18T11:24:04;52957.38;;;-144.47;25.06
64076;BME280;50327;51.328;12.324;2022-07-18T11:26:38;52979.22;;;-144.47;25.24
64076;BME280;50327;51.328;12.324;2022-07-18T11:29:12;52959.38;;;-144.47;25.01
64076;BME280;50327;51.328;12.324;2022-07-18T11:31:44;52955.41;;;-144.47;25.05
64076;BME280;50327;51.328;12.324;2022-07-18T11:34:10;52931.56;;;-144.47;24.98
64076;BME280;50327;51.328;12.324;2022-07-18T11:36:38;52925.59;;;-144.47;24.92
64076;BME280;50327;51.328;12.324;2022-07-18T11:39:04;52941.50;;;-144.47;24.56
64076;BME280;50327;51.328;12.324;2022-07-18T11:41:30;52963.34;;;-144.47;24.62
64076;BME280;50327;51.328;12.324;2022-07-18T11:43:56;52977.25;;;-144.47;24.64
64076;BME280;50327;51.328;12.324;2022-07-18T11:46:23;52935.53;;;-144.47;24.50
64076;BME280;50327;51.328;12.324;2022-07-18T11:49:03;52919.66;;;-144.47;24.32
64076;BME280;50327;51.328;12.324;2022-07-18T11:51:41;52949.44;;;-144.47;24.43
64076;BME280;50327;51.328;12.324;2022-07-18T11:54:07;52961.34;;;-144.47;24.37
64076;BME280;50327;51.328;12.324;2022-07-18T11:56:33;52937.53;;;-144.47;24.67
64076;BME280;50327;51.328;12.324;2022-07-18T11:59:09;52903.75;;;-144.47;24.61
64076;BME280;50327;51.328;12.324;2022-07-18T12:01:34;52953.41;;;-144.47;24.62
64076;BME280;50327;51.328;12.324;2022-07-18T12:04:00;52959.38;;;-144.47;24.47
64076;BME280;50327;51.328;12.324;2022-07-18T12:06:27;52901.78;;;-144.47;24.38
64076;BME280;50327;51.328;12.324;2022-07-18T12:08:57;52949.44;;;-144.47;24.30
64076;BME280;50327;51.328;12.324;2022-07-18T12:14:29;52951.44;;;-144.47;24.40
64076;BME280;50327;51.328;12.324;2022-07-18T12:16:55;52943.47;;;-144.47;24.38
64076;BME280;50327;51.328;12.324;2022-07-18T12:19:21;52927.59;;;-144.47;24.51
64076;BME280;50327;51.328;12.324;2022-07-18T12:22:07;52947.47;;;-144.47;24.84
64076;BME280;50327;51.328;12.324;2022-07-18T12:32:53;52913.69;;;-144.47;24.56
64076;BME280;50327;51.328;12.324;2022-07-18T12:37:59;52907.72;;;-144.47;24.22
64076;BME280;50327;51.328;12.324;2022-07-18T12:43:12;52923.63;;;-144.47;23.83
64076;BME280;50327;51.328;12.324;2022-07-18T12:45:38;52891.84;;;-144.47;23.64
64076;BME280;50327;51.328;12.324;2022-07-18T12:48:06;52901.78;;;-144.47;23.28
64076;BME280;50327;51.328;12.324;2022-07-18T12:50:32;52911.69;;;-144.47;23.22
64076;BME280;50327;51.328;12.324;2022-07-18T12:52:58;52885.88;;;-144.47;22.89
64076;BME280;50327;51.328;12.324;2022-07-18T12:55:24;52899.78;;;-144.47;22.65
64076;BME280;50327;51.328;12.324;2022-07-18T12:57:50;52875.94;;;-144.47;22.46
64076;BME280;50327;51.328;12.324;2022-07-18T13:00:15;52860.06;;;-144.47;22.19
64076;BME280;50327;51.328;12.324;2022-07-18T13:02:44;52854.09;;;-144.47;22.02
64076;BME280;50327;51.328;12.324;2022-07-18T13:05:10;52889.84;;;-144.47;22.15
64076;BME280;50327;51.328;12.324;2022-07-18T13:07:36;52879.94;;;-144.47;22.09
64076;BME280;50327;51.328;12.324;2022-07-18T13:10:02;52836.22;;;-144.47;21.99
64076;BME280;50327;51.328;12.324;2022-07-18T13:12:31;52850.13;;;-144.47;22.13
64076;BME280;50327;51.328;12.324;2022-07-18T13:14:57;52836.22;;;-144.47;22.19
64076;BME280;50327;51.328;12.324;2022-07-18T13:17:22;52860.06;;;-144.47;22.34
64076;BME280;50327;51.328;12.324;2022-07-18T13:19:47;52828.28;;;-144.47;22.46
64076;BME280;50327;51.328;12.324;2022-07-18T13:22:14;52899.78;;;-144.47;22.48
64076;BME280;50327;51.328;12.324;2022-07-18T13:24:39;52856.09;;;-144.47;22.50
64076;BME280;50327;51.328;12.324;2022-07-18T13:27:05;52852.13;;;-144.47;22.47